Time;durP1;ratioP1;P1;durP2;ratioP2;P2;SDS_P1;SDS_P2;PMS_P1;PMS_P2;Temp;Humidity;BMP_temperature;BMP_pressure;BME280_temperature;BME280_humidity;BME280_pressure;Samples;Min_cycle;Max_cycle;Signal;HPM_P1;HPM_P2
2022/11/06 00:00:57;;;;;;;5.45;3.47;;;;;;;9.66;63.83;97568.25;4960261;28;20040;-76
2022/11/06 00:03:22;;;;;;;6.03;3.05;;;;;;;9.60;63.78;97556.97;4948309;28;20076;-77
2022/11/06 00:08:34;;;;;;;9.82;3.85;;;;;;;9.56;63.85;97554.03;4947702;29;20077;-77
2022/11/06 00:11:00;;;;;;;6.07;2.97;;;;;;;9.48;63.56;97556.97;4948330;29;20106;-77
2022/11/06 00:13:25;;;;;;;6.75;2.92;;;;;;;9.36;64.02;97556.19;4946314;29;20141;-77
2022/11/06 00:15:51;;;;;;;5.00;2.70;;;;;;;9.31;64.31;97545.69;4948169;29;20059;-77
2022/11/06 00:18:16;;;;;;;8.07;3.65;;;;;;;9.33;63.79;97541.06;4947855;28;20417;-77
2022/11/06 00:20:42;;;;;;;5.88;3.78;;;;;;;9.40;63.60;97531.31;4920281;29;20110;-77
2022/11/06 00:23:07;;;;;;;8.18;3.60;;;;;;;9.41;64.13;97530.31;4951696;29;20067;-76
2022/11/06 00:25:32;;;;;;;6.47;3.30;;;;;;;9.43;63.87;97515.28;4952192;29;20154;-77
2022/11/06 00:27:58;;;;;;;7.50;3.70;;;;;;;9.42;63.73;97511.09;4952227;29;20102;-76
2022/11/06 00:30:23;;;;;;;7.00;3.60;;;;;;;9.46;63.28;97507.03;4952187;29;20039;-77
2022/11/06 00:32:48;;;;;;;6.18;3.60;;;;;;;9.35;63.58;97513.81;4951045;29;20078;-77
2022/11/06 00:35:14;;;;;;;6.95;3.42;;;;;;;9.38;63.41;97508.16;4951801;29;20097;-76
2022/11/06 00:37:39;;;;;;;6.50;3.15;;;;;;;9.44;63.54;97500.47;4952958;29;20114;-77
2022/11/06 00:40:05;;;;;;;7.97;4.00;;;;;;;9.35;63.69;97500.03;4967113;28;20114;-76
2022/11/06 00:42:31;;;;;;;5.45;3.83;;;;;;;9.38;63.59;97505.56;4951087;29;20035;-77
2022/11/06 00:44:56;;;;;;;7.78;3.38;;;;;;;9.40;63.63;97499.34;4947045;28;20045;-76
2022/11/06 00:47:22;;;;;;;8.32;3.85;;;;;;;9.39;63.61;97501.19;4948882;29;20074;-77
2022/11/06 00:49:47;;;;;;;6.80;3.97;;;;;;;9.29;63.82;97504.34;4951307;29;20043;-77
2022/11/06 00:52:12;;;;;;;5.80;3.28;;;;;;;9.34;63.53;97499.25;4935279;29;20420;-76
2022/11/06 00:54:38;;;;;;;6.43;3.53;;;;;;;9.21;63.98;97489.09;4934921;29;20135;-77
2022/11/06 00:57:03;;;;;;;5.13;3.78;;;;;;;9.13;64.07;97490.25;4935668;29;20039;-76
2022/11/06 00:59:28;;;;;;;7.85;3.83;;;;;;;9.16;64.02;97497.56;4953123;29;20039;-77
2022/11/06 01:01:54;;;;;;;6.05;3.17;;;;;;;9.19;63.83;97489.31;4951057;29;20035;-77
2022/11/06 01:04:22;;;;;;;5.25;2.97;;;;;;;9.22;64.17;97489.88;4967168;28;20470;-77
2022/11/06 01:06:51;;;;;;;9.48;3.67;;;;;;;9.10;64.53;97489.88;4951445;29;20069;-77
2022/11/06 01:09:19;;;;;;;5.60;3.40;;;;;;;9.12;64.49;97486.03;4935689;29;20035;-77
2022/11/06 01:11:47;;;;;;;6.95;3.10;;;;;;;9.15;64.02;97490.78;4950638;29;20054;-77
2022/11/06 01:14:15;;;;;;;7.35;3.20;;;;;;;9.13;64.76;97487.63;4981895;28;20492;-76
2022/11/06 01:16:40;;;;;;;7.63;3.80;;;;;;;9.15;63.69;97496.00;4950230;29;20078;-77
2022/11/06 01:19:06;;;;;;;8.45;3.45;;;;;;;9.19;63.84;97488.53;4951436;29;20121;-77
2022/11/06 01:21:37;;;;;;;7.22;3.50;;;;;;;9.23;63.85;97501.84;4980740;28;20036;-76
2022/11/06 01:24:09;;;;;;;6.28;2.80;;;;;;;9.26;63.77;97499.59;4950816;29;20047;-76
2022/11/06 01:26:35;;;;;;;4.22;3.42;;;;;;;9.14;64.10;97494.41;4951256;29;20035;-76
2022/11/06 01:29:00;;;;;;;8.45;4.82;;;;;;;8.98;64.61;97493.28;4918797;29;20039;-76
2022/11/06 01:31:29;;;;;;;7.18;3.30;;;;;;;9.15;64.14;97489.97;4952087;28;20035;-76
2022/11/06 01:33:56;;;;;;;7.78;2.95;;;;;;;9.16;63.90;97483.78;4933198;29;20170;-77
2022/11/06 01:36:22;;;;;;;4.63;2.80;;;;;;;9.12;63.94;97482.66;4919280;29;20031;-76
2022/11/06 01:38:50;;;;;;;6.57;3.15;;;;;;;9.27;63.68;97477.78;4950754;29;20049;-77
2022/11/06 01:41:20;;;;;;;6.13;2.80;;;;;;;9.10;64.70;97469.91;4934279;29;20031;-75
2022/11/06 01:44:03;;;;;;;10.02;3.92;;;;;;;9.35;63.65;97463.66;4950499;29;20047;-76
2022/11/06 01:46:33;;;;;;;4.70;2.97;;;;;;;9.36;63.31;97467.84;4945700;28;20039;-76
2022/11/06 01:49:03;;;;;;;5.85;2.83;;;;;;;9.36;63.21;97457.44;4934362;29;20023;-77
2022/11/06 01:51:31;;;;;;;5.43;3.50;;;;;;;9.22;63.58;97454.31;4951015;29;20035;-76
2022/11/06 01:53:56;;;;;;;5.68;2.75;;;;;;;9.25;63.19;97453.81;4949588;29;20039;-77
2022/11/06 01:56:22;;;;;;;4.30;2.80;;;;;;;9.32;62.91;97443.31;4960932;28;20031;-76
2022/11/06 01:58:50;;;;;;;5.85;2.63;;;;;;;9.26;63.34;97433.84;4931818;29;20035;-77
2022/11/06 02:01:16;;;;;;;5.88;2.38;;;;;;;9.13;63.29;97430.50;4948692;29;20034;-76
2022/11/06 02:03:47;;;;;;;5.80;2.55;;;;;;;9.23;63.28;97431.72;4947272;29;20487;-76
2022/11/06 02:06:12;;;;;;;8.18;2.75;;;;;;;9.15;63.11;97436.25;4950285;29;20061;-76
2022/11/06 02:08:38;;;;;;;5.45;2.05;;;;;;;9.30;62.76;97435.75;4951069;29;20039;-76
2022/11/06 02:11:03;;;;;;;6.65;2.85;;;;;;;9.21;62.78;97421.53;4950164;29;20522;-77
2022/11/06 02:13:47;;;;;;;6.63;2.60;;;;;;;9.42;62.63;97425.31;4934513;29;20028;-77
2022/11/06 02:16:41;;;;;;;5.97;2.67;;;;;;;9.38;62.48;97424.22;4966741;28;20110;-76
2022/11/06 02:19:38;;;;;;;4.45;2.10;;;;;;;9.35;62.55;97432.47;4934895;29;20483;-76
2022/11/06 02:22:06;;;;;;;3.95;2.38;;;;;;;9.13;63.01;97427.09;4964205;28;20061;-76
2022/11/06 02:24:50;;;;;;;6.78;2.30;;;;;;;9.30;62.88;97440.16;4951459;29;20512;-77
2022/11/06 02:27:21;;;;;;;4.43;1.95;;;;;;;9.17;63.24;97439.41;4934397;29;20039;-76
2022/11/06 02:29:55;;;;;;;4.18;2.40;;;;;;;9.17;63.26;97442.00;4934761;29;20031;-77
2022/11/06 02:32:31;;;;;;;5.00;1.83;;;;;;;9.14;62.83;97436.47;4949866;29;20027;-77
2022/11/06 02:34:59;;;;;;;7.20;2.60;;;;;;;8.93;63.30;97430.84;4965550;28;20038;-77
2022/11/06 02:37:31;;;;;;;4.15;2.35;;;;;;;9.00;63.26;97428.13;4919187;29;20043;-76
2022/11/06 02:40:00;;;;;;;3.65;2.17;;;;;;;8.92;63.16;97433.66;4950277;29;20051;-76
2022/11/06 02:42:27;;;;;;;4.75;2.85;;;;;;;8.95;63.57;97417.63;4933021;29;20038;-77
2022/11/06 02:44:54;;;;;;;4.45;2.65;;;;;;;8.86;63.52;97427.56;4946213;28;20040;-76
2022/11/06 02:47:22;;;;;;;5.03;2.90;;;;;;;8.91;63.17;97416.50;4946843;29;20023;-77
2022/11/06 02:49:55;;;;;;;5.50;2.80;;;;;;;8.85;63.68;97413.00;4950087;29;20031;-76
2022/11/06 02:52:34;;;;;;;4.90;2.17;;;;;;;8.99;63.22;97408.34;4917909;29;20036;-77
2022/11/06 02:55:05;;;;;;;5.78;2.60;;;;;;;8.98;63.07;97414.59;4949521;29;20388;-77
2022/11/06 02:57:35;;;;;;;5.35;2.13;;;;;;;8.96;62.99;97409.63;4966080;28;20106;-76
2022/11/06 03:00:02;;;;;;;4.30;2.50;;;;;;;8.91;63.48;97408.69;4918315;29;20035;-76
2022/11/06 03:02:33;;;;;;;3.65;2.30;;;;;;;8.87;63.54;97410.19;4949405;29;20031;-77
2022/11/06 03:05:13;;;;;;;3.70;2.03;;;;;;;8.86;63.12;97416.38;4965587;28;20050;-77
2022/11/06 03:07:42;;;;;;;3.25;1.95;;;;;;;8.76;63.36;97419.56;4950379;29;20066;-77
2022/11/06 03:10:08;;;;;;;6.72;2.50;;;;;;;8.68;63.24;97422.50;4949393;29;20039;-77
2022/11/06 03:12:40;;;;;;;3.58;2.10;;;;;;;8.77;62.97;97416.75;4933712;29;20035;-77
2022/11/06 03:15:18;;;;;;;4.13;2.17;;;;;;;8.71;63.32;97406.47;4950467;29;20043;-77
2022/11/06 03:17:57;;;;;;;4.05;2.22;;;;;;;8.67;63.13;97406.13;4934020;29;20027;-77
2022/11/06 03:21:00;;;;;;;7.00;2.53;;;;;;;8.69;62.98;97401.50;4917383;29;20035;-77
2022/11/06 03:23:27;;;;;;;7.20;2.60;;;;;;;8.54;63.45;97395.97;4933171;29;20479;-76
2022/11/06 03:26:10;;;;;;;4.80;2.35;;;;;;;8.64;63.35;97385.81;4933706;29;20053;-77
2022/11/06 03:28:39;;;;;;;5.00;2.08;;;;;;;8.62;63.31;97390.44;4949733;29;20031;-76
2022/11/06 03:31:09;;;;;;;5.10;2.33;;;;;;;8.59;63.80;97391.69;4949624;29;20110;-77
2022/11/06 03:33:37;;;;;;;6.43;2.42;;;;;;;8.59;63.63;97373.50;4977680;28;20089;-77
2022/11/06 03:36:14;;;;;;;4.32;2.17;;;;;;;8.72;63.48;97376.88;4949730;29;20031;-77
2022/11/06 03:38:44;;;;;;;4.60;2.42;;;;;;;8.70;63.76;97373.72;4949567;28;20133;-76
2022/11/06 03:41:14;;;;;;;4.05;2.30;;;;;;;8.69;63.48;97361.75;4948515;29;20024;-76
2022/11/06 03:43:41;;;;;;;4.80;3.17;;;;;;;8.73;63.29;97360.31;4949054;29;20411;-76
2022/11/06 03:46:11;;;;;;;4.53;2.28;;;;;;;8.70;63.40;97364.13;4929483;29;20038;-77
2022/11/06 03:48:46;;;;;;;5.95;2.22;;;;;;;8.68;63.39;97355.78;4916351;29;20554;-76
2022/11/06 03:51:13;;;;;;;;;;;;;;;8.88;63.07;97346.84;4971039;28;20492;-77
2022/11/06 03:53:41;;;;;;;4.75;1.92;;;;;;;8.72;63.12;97346.53;4947724;28;19969;-77
2022/11/06 03:56:11;;;;;;;5.90;2.40;;;;;;;8.80;63.10;97359.16;4980083;28;20069;-77
2022/11/06 03:58:38;;;;;;;6.07;2.08;;;;;;;8.71;62.89;97362.34;4945109;29;20031;-77
2022/11/06 04:01:07;;;;;;;2.38;1.65;;;;;;;8.64;63.03;97370.25;4965160;28;20046;-77
2022/11/06 04:03:36;;;;;;;4.35;2.03;;;;;;;8.60;62.64;97367.31;4965143;28;20374;-77
2022/11/06 04:06:27;;;;;;;4.60;1.90;;;;;;;8.64;62.31;97375.44;4949003;29;20111;-76
2022/11/06 04:14:25;;;;;;;2.90;1.80;;;;;;;8.33;63.19;97379.91;4948955;29;20038;-76
2022/11/06 04:16:54;;;;;;;5.05;2.15;;;;;;;8.32;63.01;97385.31;4948951;29;20403;-77
2022/11/06 04:19:21;;;;;;;4.07;2.13;;;;;;;8.24;63.26;97386.41;4953977;28;20035;-77
2022/11/06 04:22:17;;;;;;;6.65;2.60;;;;;;;8.32;63.39;97388.69;4978180;28;20154;-77
2022/11/06 04:27:41;;;;;;;5.35;2.58;;;;;;;8.21;62.96;97389.50;4950392;29;19997;-77
2022/11/06 04:30:10;;;;;;;4.13;2.30;;;;;;;8.05;63.31;97396.91;4965080;28;20037;-77
2022/11/06 04:32:51;;;;;;;5.03;2.83;;;;;;;8.12;63.45;97398.59;4948863;29;20110;-77
2022/11/06 04:35:47;;;;;;;6.45;3.47;;;;;;;8.13;63.56;97395.00;4949595;29;20046;-76
2022/11/06 04:38:22;;;;;;;;;;;;;;;8.37;62.83;97401.00;4965802;28;20035;-76
2022/11/06 04:40:52;;;;;;;4.18;2.13;;;;;;;8.14;63.36;97393.97;4933028;28;19914;-77
2022/11/06 04:43:35;;;;;;;2.97;1.98;;;;;;;8.11;63.88;97386.66;4948467;29;20492;-77
2022/11/06 04:46:02;;;;;;;4.85;2.40;;;;;;;8.10;64.11;97390.25;4945871;28;20031;-76
2022/11/06 04:48:28;;;;;;;4.22;2.70;;;;;;;8.13;64.22;97384.63;4945492;29;20043;-76
2022/11/06 04:50:58;;;;;;;6.35;2.80;;;;;;;8.17;64.03;97377.97;4948587;29;20035;-77
2022/11/06 04:53:24;;;;;;;6.35;3.47;;;;;;;8.10;64.26;97375.47;4932171;29;20039;-76
2022/11/06 04:55:55;;;;;;;9.70;4.82;;;;;;;8.05;64.78;97377.94;4932665;29;20050;-76
2022/11/06 04:58:20;;;;;;;6.82;3.25;;;;;;;7.99;65.18;97360.69;4932658;29;20030;-76
2022/11/06 05:00:48;;;;;;;6.05;3.42;;;;;;;8.11;64.95;97355.53;4931751;29;20047;-77
2022/11/06 05:03:14;;;;;;;9.13;3.60;;;;;;;8.09;64.63;97353.16;4947996;29;20114;-76
2022/11/06 05:05:39;;;;;;;8.73;3.35;;;;;;;8.07;64.84;97366.34;4950201;28;20050;-76
2022/11/06 05:08:04;;;;;;;8.55;4.07;;;;;;;8.02;64.79;97368.81;4952342;29;20043;-76
2022/11/06 05:10:30;;;;;;;7.82;3.80;;;;;;;8.18;64.69;97372.56;4936010;29;20067;-76
2022/11/06 05:12:55;;;;;;;5.55;3.67;;;;;;;8.18;64.08;97364.78;4950961;29;20039;-77
2022/11/06 05:15:20;;;;;;;7.15;3.80;;;;;;;8.16;64.57;97358.25;4952110;29;20035;-76
2022/11/06 05:17:49;;;;;;;7.32;4.00;;;;;;;8.18;64.80;97354.41;4952205;29;20031;-77
2022/11/06 05:20:14;;;;;;;9.63;3.80;;;;;;;8.19;64.58;97352.59;4935447;29;20027;-76
2022/11/06 05:22:59;;;;;;;7.45;4.18;;;;;;;8.26;64.80;97345.50;4935114;29;20055;-76
2022/11/06 05:25:35;;;;;;;7.43;3.92;;;;;;;8.23;64.79;97333.75;4952261;29;20039;-77
2022/11/06 05:28:01;;;;;;;7.47;4.07;;;;;;;8.19;64.96;97332.66;4935985;29;20031;-77
2022/11/06 05:30:27;;;;;;;6.88;3.85;;;;;;;8.24;65.18;97331.94;4951646;29;20043;-76
2022/11/06 05:32:52;;;;;;;7.68;3.75;;;;;;;8.27;64.94;97317.75;4951181;29;20158;-77
2022/11/06 05:35:19;;;;;;;8.23;3.38;;;;;;;8.33;64.32;97316.84;4952787;29;20035;-76
2022/11/06 05:37:45;;;;;;;7.15;3.90;;;;;;;8.37;63.39;97318.75;4935882;29;20500;-77
2022/11/06 05:40:10;;;;;;;6.45;3.95;;;;;;;8.27;63.70;97321.13;4951148;29;20122;-76
2022/11/06 05:42:37;;;;;;;6.13;3.45;;;;;;;8.36;63.58;97318.97;4952244;29;20039;-77
2022/11/06 05:45:03;;;;;;;7.68;4.18;;;;;;;8.36;63.66;97316.38;4963341;28;20028;-76
2022/11/06 05:47:29;;;;;;;10.65;4.97;;;;;;;8.22;64.25;97300.25;4964177;28;20058;-76
2022/11/06 05:49:54;;;;;;;8.05;4.00;;;;;;;8.23;63.51;97294.06;4950490;28;20031;-76
2022/11/06 05:52:19;;;;;;;7.85;4.50;;;;;;;8.32;63.45;97295.31;4952515;29;20031;-76
2022/11/06 05:54:45;;;;;;;8.02;4.57;;;;;;;8.24;63.55;97298.22;4952207;29;20150;-76
2022/11/06 05:57:10;;;;;;;9.93;4.45;;;;;;;8.23;63.59;97294.84;4935043;29;20027;-77
2022/11/06 05:59:35;;;;;;;10.75;4.78;;;;;;;8.18;63.77;97283.59;4950269;29;20090;-76
2022/11/06 06:02:01;;;;;;;8.90;4.80;;;;;;;8.14;64.04;97282.44;4949746;29;20127;-76
2022/11/06 06:04:26;;;;;;;7.95;4.25;;;;;;;8.11;63.72;97264.75;4949616;29;20038;-76
2022/11/06 06:06:51;;;;;;;10.45;4.68;;;;;;;8.15;63.90;97258.09;4950073;29;20043;-77
2022/11/06 06:09:17;;;;;;;9.20;4.85;;;;;;;8.16;63.90;97254.50;4950329;29;20027;-76
2022/11/06 06:11:42;;;;;;;11.85;5.05;;;;;;;8.12;63.87;97255.94;4949213;29;20024;-76
2022/11/06 06:14:07;;;;;;;8.98;5.28;;;;;;;8.17;64.06;97250.88;4965766;28;20035;-77
2022/11/06 06:16:33;;;;;;;11.43;4.90;;;;;;;8.25;63.80;97247.94;4948331;28;20023;-77
2022/11/06 06:18:58;;;;;;;11.20;4.47;;;;;;;8.25;64.54;97243.53;4965810;28;20058;-76
2022/11/06 06:21:23;;;;;;;8.52;4.40;;;;;;;8.19;64.43;97228.91;4979220;28;20351;-77
2022/11/06 06:23:49;;;;;;;10.23;4.85;;;;;;;8.14;64.71;97213.22;4933329;29;20078;-77
2022/11/06 06:26:14;;;;;;;9.15;5.38;;;;;;;8.25;64.34;97211.63;4949579;29;20043;-76
2022/11/06 06:28:39;;;;;;;8.63;4.90;;;;;;;8.20;65.01;97199.34;4948878;29;20023;-77
2022/11/06 06:31:06;;;;;;;9.02;4.30;;;;;;;8.26;64.80;97195.06;4947639;29;20027;-77
2022/11/06 06:33:32;;;;;;;9.00;5.07;;;;;;;8.32;64.58;97196.72;4932690;29;20643;-76
2022/11/06 06:35:57;;;;;;;8.15;5.10;;;;;;;8.35;64.72;97198.88;4949641;29;20114;-76
2022/11/06 06:38:24;;;;;;;7.55;4.22;;;;;;;8.36;65.05;97197.88;4933648;29;20036;-76
2022/11/06 06:40:50;;;;;;;8.73;4.30;;;;;;;8.40;65.30;97188.59;4949348;29;20490;-76
2022/11/06 06:43:15;;;;;;;9.02;4.47;;;;;;;8.41;65.71;97181.59;4948514;29;20146;-76
2022/11/06 06:45:41;;;;;;;10.40;4.78;;;;;;;8.51;65.13;97188.81;4944707;28;20035;-77
2022/11/06 06:48:06;;;;;;;8.13;4.40;;;;;;;8.54;64.77;97189.16;4942545;29;20122;-76
2022/11/06 06:50:32;;;;;;;8.27;4.07;;;;;;;8.58;65.09;97184.28;4934364;29;20057;-77
2022/11/06 06:52:58;;;;;;;8.50;4.03;;;;;;;8.66;65.14;97189.09;4949683;29;20182;-77
2022/11/06 06:55:24;;;;;;;6.47;3.92;;;;;;;8.61;64.81;97194.97;4949809;29;20046;-77
2022/11/06 06:57:57;;;;;;;7.53;4.15;;;;;;;8.68;64.01;97194.84;4949649;29;20447;-77
2022/11/06 07:00:22;;;;;;;8.05;4.55;;;;;;;8.59;64.06;97202.22;4934193;29;20043;-77
2022/11/06 07:02:47;;;;;;;7.57;3.75;;;;;;;8.55;63.66;97195.13;4949578;29;20039;-76
2022/11/06 07:05:13;;;;;;;6.70;4.00;;;;;;;8.38;64.23;97198.41;4949377;29;20050;-76
2022/11/06 07:07:38;;;;;;;6.55;4.32;;;;;;;8.32;64.06;97191.53;4949937;29;20066;-76
2022/11/06 07:10:04;;;;;;;5.35;3.80;;;;;;;8.30;63.97;97198.75;4949404;29;20027;-77
2022/11/06 07:12:29;;;;;;;6.57;3.65;;;;;;;8.31;64.41;97210.72;4949176;29;20086;-76
2022/11/06 07:14:54;;;;;;;6.65;3.55;;;;;;;8.36;63.99;97220.41;4950042;29;20041;-77
2022/11/06 07:17:20;;;;;;;7.95;5.32;;;;;;;8.46;63.15;97225.03;4951371;29;20110;-76
2022/11/06 07:19:45;;;;;;;8.63;5.10;;;;;;;8.44;62.29;97239.03;4945488;29;20066;-77
2022/11/06 07:22:11;;;;;;;8.25;3.80;;;;;;;8.47;61.67;97240.38;4947999;29;20078;-76
2022/11/06 07:24:36;;;;;;;8.60;3.58;;;;;;;8.43;61.20;97260.00;4949600;29;20399;-77
2022/11/06 07:27:01;;;;;;;6.65;3.70;;;;;;;8.34;61.24;97274.31;4949981;29;20036;-76
2022/11/06 07:29:27;;;;;;;6.07;4.05;;;;;;;8.43;61.41;97281.56;4951168;28;20039;-77
2022/11/06 07:31:52;;;;;;;8.73;3.50;;;;;;;8.34;62.18;97288.06;4933000;29;20069;-76
2022/11/06 07:34:18;;;;;;;7.05;3.72;;;;;;;8.35;62.79;97283.69;4917499;29;20062;-77
2022/11/06 07:36:43;;;;;;;7.93;4.47;;;;;;;8.43;63.03;97286.75;4932925;29;20027;-77
2022/11/06 07:39:10;;;;;;;7.72;4.25;;;;;;;8.49;63.39;97292.84;4950503;28;20135;-77
2022/11/06 07:41:36;;;;;;;8.13;4.30;;;;;;;8.49;64.02;97292.06;4965340;28;20114;-77
2022/11/06 07:44:02;;;;;;;8.95;4.75;;;;;;;8.66;63.17;97295.53;4975125;28;20023;-76
2022/11/06 07:46:27;;;;;;;10.85;4.72;;;;;;;8.71;63.89;97287.06;4926777;29;20087;-77
2022/11/06 07:48:53;;;;;;;8.23;4.15;;;;;;;8.74;64.02;97271.00;4932881;29;20027;-77
2022/11/06 07:51:19;;;;;;;8.35;5.18;;;;;;;8.70;64.36;97272.50;4949916;28;20547;-77
2022/11/06 07:53:44;;;;;;;7.78;4.68;;;;;;;8.86;64.06;97269.19;4949032;29;20115;-77
2022/11/06 07:56:09;;;;;;;10.40;4.90;;;;;;;8.93;64.24;97258.69;4949462;29;20471;-75
2022/11/06 07:58:35;;;;;;;7.28;4.35;;;;;;;8.96;64.06;97256.41;4949506;29;20046;-77
2022/11/06 08:01:01;;;;;;;6.72;4.43;;;;;;;9.06;63.97;97253.19;4963868;28;20506;-76
2022/11/06 08:03:28;;;;;;;7.30;4.07;;;;;;;9.07;64.56;97254.78;4948314;29;20097;-76
2022/11/06 08:05:54;;;;;;;6.30;4.05;;;;;;;9.19;64.44;97245.13;4965426;28;20035;-77
2022/11/06 08:08:20;;;;;;;8.85;4.88;;;;;;;9.27;64.88;97232.75;4948612;29;20479;-77
2022/11/06 08:10:46;;;;;;;7.50;4.53;;;;;;;9.38;64.88;97235.28;4949291;29;20062;-77
2022/11/06 08:13:13;;;;;;;7.88;4.40;;;;;;;9.55;64.56;97235.31;4949779;29;20090;-76
2022/11/06 08:15:40;;;;;;;7.55;3.97;;;;;;;9.52;65.14;97230.56;4933157;29;20027;-77
2022/11/06 08:18:07;;;;;;;4.40;3.25;;;;;;;9.69;64.93;97229.81;4964737;28;20126;-77
2022/11/06 08:20:35;;;;;;;7.10;3.92;;;;;;;9.75;64.86;97214.03;4948343;29;20514;-77
2022/11/06 08:23:02;;;;;;;7.53;3.80;;;;;;;9.92;64.89;97229.63;4932460;29;20067;-77
2022/11/06 08:25:28;;;;;;;7.45;4.70;;;;;;;10.05;64.40;97218.09;4933460;29;20106;-76
2022/11/06 08:27:55;;;;;;;5.18;3.38;;;;;;;10.11;64.25;97211.16;4950213;29;20043;-77
2022/11/06 08:30:20;;;;;;;6.15;3.58;;;;;;;10.18;64.21;97203.16;4933055;29;20090;-76
2022/11/06 08:32:45;;;;;;;6.70;3.25;;;;;;;10.38;63.84;97203.44;4948631;29;20447;-77
2022/11/06 08:35:11;;;;;;;4.60;2.83;;;;;;;10.46;63.59;97202.25;4947463;29;20558;-76
2022/11/06 08:37:36;;;;;;;6.40;3.40;;;;;;;10.62;63.15;97206.59;4950313;29;20514;-77
2022/11/06 08:40:03;;;;;;;6.90;3.97;;;;;;;10.63;64.60;97189.94;4950445;28;20431;-76
2022/11/06 08:42:28;;;;;;;8.38;3.85;;;;;;;10.73;64.08;97175.47;4952032;29;20373;-76
2022/11/06 08:44:54;;;;;;;7.97;3.90;;;;;;;10.81;62.20;97165.41;4949588;28;20042;-77
2022/11/06 08:47:19;;;;;;;8.27;3.45;;;;;;;10.71;62.00;97164.50;4932239;29;20046;-76
2022/11/06 08:49:44;;;;;;;4.97;2.95;;;;;;;11.06;62.94;97171.88;4936399;29;20039;-75
2022/11/06 08:52:10;;;;;;;5.85;2.65;;;;;;;10.97;61.43;97163.72;4952106;29;20648;-76
2022/11/06 08:54:35;;;;;;;6.07;2.78;;;;;;;11.15;61.39;97167.00;4952625;29;20035;-76
2022/11/06 08:57:00;;;;;;;5.75;2.42;;;;;;;11.36;61.66;97158.31;4952999;29;20093;-76
2022/11/06 08:59:26;;;;;;;4.53;2.53;;;;;;;11.40;60.02;97151.56;4949138;29;20118;-76
2022/11/06 09:01:52;;;;;;;6.10;2.38;;;;;;;11.47;59.20;97159.19;4952031;29;20442;-76
2022/11/06 09:04:17;;;;;;;3.47;2.22;;;;;;;11.72;58.79;97155.97;4935570;29;20579;-76
2022/11/06 09:06:42;;;;;;;4.22;2.28;;;;;;;11.63;59.11;97149.63;4936560;29;20041;-76
2022/11/06 09:09:08;;;;;;;4.00;2.80;;;;;;;11.74;59.53;97153.88;4952338;29;20050;-77
2022/11/06 09:11:34;;;;;;;4.78;1.92;;;;;;;11.77;59.87;97148.16;4952298;29;20105;-76
2022/11/06 09:13:59;;;;;;;3.15;1.92;;;;;;;11.94;59.74;97139.41;4935692;29;20038;-76
2022/11/06 09:16:25;;;;;;;2.90;1.90;;;;;;;12.03;58.81;97135.28;4951871;28;20050;-76
2022/11/06 09:18:54;;;;;;;3.40;1.92;;;;;;;12.14;59.21;97131.66;4951353;29;20039;-77
2022/11/06 09:21:19;;;;;;;3.75;2.40;;;;;;;12.25;59.25;97135.13;4952867;28;20035;-76
2022/11/06 09:23:45;;;;;;;2.42;1.80;;;;;;;12.28;59.87;97134.59;4935186;29;20367;-77
2022/11/06 09:26:11;;;;;;;3.20;2.10;;;;;;;12.37;58.40;97129.66;4935862;29;20480;-76
2022/11/06 09:28:36;;;;;;;1.65;1.27;;;;;;;12.49;57.02;97125.00;4950881;29;20038;-77
2022/11/06 09:31:02;;;;;;;2.67;1.58;;;;;;;12.62;56.80;97120.31;4951538;29;20039;-77
2022/11/06 09:33:27;;;;;;;3.55;1.13;;;;;;;12.58;56.08;97111.41;4967601;28;20035;-77
2022/11/06 09:35:52;;;;;;;3.90;1.50;;;;;;;12.67;55.38;97107.28;4935495;29;20133;-76
2022/11/06 09:38:18;;;;;;;1.80;1.02;;;;;;;12.60;52.86;97106.75;4951263;29;20057;-77
2022/11/06 09:40:52;;;;;;;2.50;1.30;;;;;;;12.73;54.28;97098.38;4953152;29;20111;-77
2022/11/06 09:43:56;;;;;;;1.52;0.85;;;;;;;12.96;54.21;97089.28;4963196;28;20524;-76
2022/11/06 09:46:33;;;;;;;2.90;1.10;;;;;;;13.01;54.06;97085.88;4947822;28;20436;-77
2022/11/06 09:49:15;;;;;;;1.77;1.00;;;;;;;12.90;53.86;97082.47;4951086;28;20027;-76
2022/11/06 09:52:03;;;;;;;2.95;1.25;;;;;;;13.16;52.63;97072.00;4950036;28;20114;-76
2022/11/06 09:54:33;;;;;;;2.13;0.80;;;;;;;13.18;53.60;97072.50;4918808;29;20027;-76
2022/11/06 09:57:10;;;;;;;1.65;0.88;;;;;;;13.39;51.71;97068.09;4950648;29;20034;-76
2022/11/06 09:59:36;;;;;;;2.65;0.80;;;;;;;13.09;51.46;97056.56;4919629;29;20073;-76
2022/11/06 10:02:03;;;;;;;3.28;0.60;;;;;;;13.47;50.84;97063.09;4950511;29;20035;-76
2022/11/06 10:04:45;;;;;;;0.73;0.70;;;;;;;13.80;48.18;97067.97;4950978;29;20043;-77
2022/11/06 10:07:32;;;;;;;3.20;0.85;;;;;;;13.79;48.62;97056.72;4934686;29;20119;-76
2022/11/06 10:09:59;;;;;;;2.58;0.90;;;;;;;13.64;49.24;97051.53;4951286;29;20057;-76
2022/11/06 10:12:48;;;;;;;1.92;0.70;;;;;;;13.80;47.71;97065.38;4949731;29;20035;-76
2022/11/06 10:15:30;;;;;;;2.80;0.63;;;;;;;14.01;49.64;97055.59;4951198;29;20039;-77
2022/11/06 10:18:19;;;;;;;1.52;0.90;;;;;;;14.15;48.77;97050.53;4951028;29;20582;-77
2022/11/06 10:20:51;;;;;;;2.00;0.82;;;;;;;14.13;47.43;97053.41;4966876;28;20047;-77
2022/11/06 10:23:24;;;;;;;3.85;0.77;;;;;;;14.16;47.76;97046.88;4956432;28;20051;-77
2022/11/06 10:26:12;;;;;;;2.58;0.85;;;;;;;14.25;49.24;97040.00;4951062;28;20043;-76
2022/11/06 10:28:46;;;;;;;1.55;0.70;;;;;;;13.93;46.78;97033.38;4949060;29;20027;-77
2022/11/06 10:31:27;;;;;;;2.88;0.70;;;;;;;14.33;47.66;97023.72;4949320;28;20038;-75
2022/11/06 10:34:02;;;;;;;0.93;0.70;;;;;;;14.28;45.32;97015.91;4949075;29;20031;-76
2022/11/06 10:36:32;;;;;;;1.45;0.63;;;;;;;14.24;48.64;97027.97;4960920;28;20035;-76
2022/11/06 10:38:58;;;;;;;2.08;0.70;;;;;;;14.30;48.53;97020.88;4965649;28;20545;-76
2022/11/06 10:41:28;;;;;;;0.80;0.50;;;;;;;14.33;49.42;97015.88;4972321;28;20038;-76
2022/11/06 10:44:15;;;;;;;1.48;1.00;;;;;;;14.41;50.21;97020.53;4949700;29;20038;-76
2022/11/06 10:46:51;;;;;;;0.93;0.60;;;;;;;14.66;47.94;97007.53;4961296;28;20118;-77
2022/11/06 10:49:29;;;;;;;2.17;1.10;;;;;;;14.73;48.36;96995.69;4945077;29;20042;-76
2022/11/06 10:52:32;;;;;;;1.00;0.68;;;;;;;15.08;45.35;96995.63;4949141;29;20070;-76
2022/11/06 10:55:12;;;;;;;2.83;0.50;;;;;;;15.03;45.65;96991.22;4965975;28;20035;-76
2022/11/06 10:57:43;;;;;;;1.40;0.60;;;;;;;14.98;46.55;96999.16;4950653;28;20490;-76
2022/11/06 11:00:14;;;;;;;1.73;0.80;;;;;;;15.09;45.93;96989.34;4933440;29;20052;-75
2022/11/06 11:02:48;;;;;;;0.73;0.47;;;;;;;15.00;46.42;96983.16;4947983;28;20039;-76
2022/11/06 11:05:18;;;;;;;3.50;1.25;;;;;;;14.96;46.59;96977.66;4949657;29;20063;-76
2022/11/06 11:07:46;;;;;;;1.25;0.68;;;;;;;14.87;47.29;96981.94;4924143;29;20126;-76
2022/11/06 11:10:33;;;;;;;2.08;0.70;;;;;;;14.89;47.67;96978.00;4949341;29;20122;-77
2022/11/06 11:13:01;;;;;;;0.85;0.70;;;;;;;14.90;46.62;96984.00;4948297;29;20110;-76
2022/11/06 11:15:37;;;;;;;2.38;1.20;;;;;;;14.96;46.89;96978.44;4932754;29;20547;-77
2022/11/06 11:18:11;;;;;;;0.85;0.45;;;;;;;15.13;45.54;96967.53;4949057;29;20031;-76
2022/11/06 11:20:42;;;;;;;1.52;0.80;;;;;;;15.15;47.37;96962.00;4948144;29;20027;-76
2022/11/06 11:23:16;;;;;;;0.75;0.60;;;;;;;15.09;45.86;96963.09;4945289;29;20040;-76
2022/11/06 11:25:44;;;;;;;2.88;0.85;;;;;;;14.84;48.43;96956.28;4978040;28;20024;-76
2022/11/06 11:28:29;;;;;;;1.52;0.80;;;;;;;14.77;46.04;96949.53;4948595;29;20475;-77
2022/11/06 11:31:28;;;;;;;4.32;1.00;;;;;;;14.83;47.61;96941.63;4932940;29;20043;-76
2022/11/06 11:33:56;;;;;;;2.10;1.10;;;;;;;14.71;47.36;96939.38;4927752;29;20487;-76
2022/11/06 11:36:22;;;;;;;1.40;1.10;;;;;;;14.63;46.83;96940.72;4932666;29;20166;-76
2022/11/06 11:38:47;;;;;;;1.48;1.00;;;;;;;14.84;47.73;96936.09;4932959;29;20462;-77
2022/11/06 11:41:20;;;;;;;2.25;1.02;;;;;;;15.06;46.03;96933.00;4936261;29;20031;-77
2022/11/06 11:44:04;;;;;;;2.00;0.90;;;;;;;15.27;46.08;96923.06;4931855;29;20377;-76
2022/11/06 11:46:30;;;;;;;3.92;1.27;;;;;;;15.17;47.01;96913.44;4946443;28;20035;-76
2022/11/06 11:48:57;;;;;;;2.13;0.73;;;;;;;15.00;44.91;96902.63;4928813;29;20035;-76
2022/11/06 11:51:35;;;;;;;1.55;0.88;;;;;;;15.14;47.15;96894.88;4932032;29;20034;-77
2022/11/06 11:54:03;;;;;;;2.40;1.20;;;;;;;15.16;47.73;96893.56;4937704;29;20038;-76
2022/11/06 11:56:28;;;;;;;2.10;1.27;;;;;;;15.07;45.42;96895.22;4949831;28;20031;-76
2022/11/06 11:58:56;;;;;;;2.00;1.23;;;;;;;15.07;48.25;96897.84;4948965;29;20213;-76
2022/11/06 12:01:51;;;;;;;2.88;0.80;;;;;;;14.86;46.11;96884.19;4964188;28;20031;-76